Maldives Meteorological Service

SYNOP

Station Code SYNOP
43555
AAXX 22094 43555 42460 73606 10306 20267 30071 40073 83231 333 59015 83818=
43533
AAXX 22094 43533 42462 73205 10314 20256 30072 40074 82202 333 59014 82818 87077=
43577
AAXX 22094 43577 42460 72704 10320 20264 30073 40075 82232 333 59014 82818 87076=
43588
AAXX 22094 43588 41462 72912 10294 20248 30078 40079 72582 84937 333 59010 83817 81918 88275=
43599
AAXX 22094 43599 42460 72712 10296 20257 30077 40079 83932 333 59014 82817 81918 87076=
Last Updated : 2017-11-22 14:00:13